sensor_id;sensor_type;location;lat;lon;timestamp;pressure;altitude;pressure_sealevel;temperature;humidity
54262;BME280;40174;52.364;6.452;2022-09-09T00:02:05;100534.56;;;14.97;100.00
54262;BME280;40174;52.364;6.452;2022-09-09T00:04:38;100534.88;;;14.94;100.00
54262;BME280;40174;52.364;6.452;2022-09-09T00:07:10;100544.53;;;14.95;100.00
54262;BME280;40174;52.364;6.452;2022-09-09T00:09:45;100550.69;;;14.96;100.00
54262;BME280;40174;52.364;6.452;2022-09-09T00:12:16;100546.06;;;14.98;100.00
54262;BME280;40174;52.364;6.452;2022-09-09T00:14:50;100546.19;;;14.96;100.00
54262;BME280;40174;52.364;6.452;2022-09-09T00:17:25;100546.06;;;14.98;100.00
54262;BME280;40174;52.364;6.452;2022-09-09T00:19:56;100536.56;;;14.95;100.00
54262;BME280;40174;52.364;6.452;2022-09-09T00:22:29;100540.06;;;14.96;100.00
54262;BME280;40174;52.364;6.452;2022-09-09T00:25:02;100544.38;;;14.97;100.00
54262;BME280;40174;52.364;6.452;2022-09-09T00:27:39;100538.91;;;14.99;100.00
54262;BME280;40174;52.364;6.452;2022-09-09T00:30:14;100535.56;;;14.96;100.00
54262;BME280;40174;52.364;6.452;2022-09-09T00:32:46;100537.22;;;14.97;100.00
54262;BME280;40174;52.364;6.452;2022-09-09T00:35:17;100537.06;;;14.99;100.00
54262;BME280;40174;52.364;6.452;2022-09-09T00:37:46;100536.09;;;15.00;100.00
54262;BME280;40174;52.364;6.452;2022-09-09T00:40:22;100535.56;;;14.96;100.00
54262;BME280;40174;52.364;6.452;2022-09-09T00:42:54;100534.06;;;14.94;100.00
54262;BME280;40174;52.364;6.452;2022-09-09T00:45:42;100536.03;;;14.92;100.00
54262;BME280;40174;52.364;6.452;2022-09-09T00:48:15;100526.38;;;14.91;100.00
54262;BME280;40174;52.364;6.452;2022-09-09T00:50:47;100527.38;;;14.90;100.00
54262;BME280;40174;52.364;6.452;2022-09-09T00:53:27;100528.19;;;14.90;100.00
54262;BME280;40174;52.364;6.452;2022-09-09T00:56:03;100521.84;;;14.83;100.00
54262;BME280;40174;52.364;6.452;2022-09-09T00:58:31;100522.31;;;14.79;100.00
54262;BME280;40174;52.364;6.452;2022-09-09T01:01:03;100515.16;;;14.79;100.00
54262;BME280;40174;52.364;6.452;2022-09-09T01:03:35;100514.34;;;14.79;100.00
54262;BME280;40174;52.364;6.452;2022-09-09T01:06:13;100518.50;;;14.81;100.00
54262;BME280;40174;52.364;6.452;2022-09-09T01:08:59;100514.50;;;14.77;100.00
54262;BME280;40174;52.364;6.452;2022-09-09T01:11:33;100519.81;;;14.77;100.00
54262;BME280;40174;52.364;6.452;2022-09-09T01:14:11;100512.69;;;14.78;100.00
54262;BME280;40174;52.364;6.452;2022-09-09T01:16:40;100517.16;;;14.77;100.00
54262;BME280;40174;52.364;6.452;2022-09-09T01:19:10;100517.34;;;14.75;100.00
54262;BME280;40174;52.364;6.452;2022-09-09T01:21:47;100528.81;;;14.76;100.00
54262;BME280;40174;52.364;6.452;2022-09-09T01:24:22;100520.13;;;14.74;100.00
54262;BME280;40174;52.364;6.452;2022-09-09T01:27:20;100514.00;;;14.73;100.00
54262;BME280;40174;52.364;6.452;2022-09-09T01:29:47;100515.78;;;14.73;100.00
54262;BME280;40174;52.364;6.452;2022-09-09T01:32:37;100509.16;;;14.77;100.00
54262;BME280;40174;52.364;6.452;2022-09-09T01:35:06;100511.69;;;14.79;100.00
54262;BME280;40174;52.364;6.452;2022-09-09T01:37:34;100512.69;;;14.78;100.00
54262;BME280;40174;52.364;6.452;2022-09-09T01:40:01;100507.38;;;14.78;100.00
54262;BME280;40174;52.364;6.452;2022-09-09T01:42:31;100503.03;;;14.76;100.00
54262;BME280;40174;52.364;6.452;2022-09-09T01:44:59;100502.88;;;14.78;100.00
54262;BME280;40174;52.364;6.452;2022-09-09T01:47:25;100508.88;;;14.80;100.00
54262;BME280;40174;52.364;6.452;2022-09-09T01:50:15;100503.03;;;14.76;100.00
54262;BME280;40174;52.364;6.452;2022-09-09T01:52:44;100500.38;;;14.76;100.00
54262;BME280;40174;52.364;6.452;2022-09-09T01:55:14;100503.84;;;14.77;100.00
54262;BME280;40174;52.364;6.452;2022-09-09T01:57:52;100514.50;;;14.77;100.00
54262;BME280;40174;52.364;6.452;2022-09-09T02:00:22;100512.69;;;14.78;100.00
54262;BME280;40174;52.364;6.452;2022-09-09T02:03:00;100507.53;;;14.76;100.00
54262;BME280;40174;52.364;6.452;2022-09-09T02:05:42;100509.16;;;14.77;100.00
54262;BME280;40174;52.364;6.452;2022-09-09T02:08:23;100513.81;;;14.75;100.00
54262;BME280;40174;52.364;6.452;2022-09-09T02:11:05;100510.66;;;14.71;100.00
54262;BME280;40174;52.364;6.452;2022-09-09T02:13:44;100507.16;;;14.71;100.00
54262;BME280;40174;52.364;6.452;2022-09-09T02:16:18;100510.81;;;14.70;100.00
54262;BME280;40174;52.364;6.452;2022-09-09T02:18:51;100512.63;;;14.69;100.00
54262;BME280;40174;52.364;6.452;2022-09-09T02:21:29;100510.13;;;14.68;100.00
54262;BME280;40174;52.364;6.452;2022-09-09T02:23:58;100520.75;;;14.68;100.00
54262;BME280;40174;52.364;6.452;2022-09-09T02:26:31;100516.44;;;14.67;100.00
54262;BME280;40174;52.364;6.452;2022-09-09T02:29:08;100521.09;;;14.65;100.00
54262;BME280;40174;52.364;6.452;2022-09-09T02:31:36;100527.56;;;14.62;100.00
54262;BME280;40174;52.364;6.452;2022-09-09T02:34:09;100526.06;;;14.60;100.00
54262;BME280;40174;52.364;6.452;2022-09-09T02:36:39;100522.28;;;14.52;100.00
54262;BME280;40174;52.364;6.452;2022-09-09T02:39:08;100519.97;;;14.49;100.00
54262;BME280;40174;52.364;6.452;2022-09-09T02:41:37;100517.44;;;14.48;100.00
54262;BME280;40174;52.364;6.452;2022-09-09T02:44:09;100517.75;;;14.45;100.00
54262;BME280;40174;52.364;6.452;2022-09-09T02:46:45;100524.91;;;14.44;100.00
54262;BME280;40174;52.364;6.452;2022-09-09T02:49:21;100516.09;;;14.44;100.00
54262;BME280;40174;52.364;6.452;2022-09-09T02:51:53;100515.56;;;14.40;100.00
54262;BME280;40174;52.364;6.452;2022-09-09T02:54:28;100513.88;;;14.39;100.00
54262;BME280;40174;52.364;6.452;2022-09-09T02:57:00;100511.41;;;14.38;100.00
54262;BME280;40174;52.364;6.452;2022-09-09T02:59:35;100510.72;;;14.35;100.00
54262;BME280;40174;52.364;6.452;2022-09-09T03:02:02;100510.03;;;14.33;100.00
54262;BME280;40174;52.364;6.452;2022-09-09T03:04:31;100510.38;;;14.30;100.00
54262;BME280;40174;52.364;6.452;2022-09-09T03:06:57;100517.66;;;14.28;100.00
54262;BME280;40174;52.364;6.452;2022-09-09T03:09:24;100518.78;;;14.26;100.00
54262;BME280;40174;52.364;6.452;2022-09-09T03:11:52;100522.75;;;14.22;100.00
54262;BME280;40174;52.364;6.452;2022-09-09T03:14:21;100525.69;;;14.19;100.00
54262;BME280;40174;52.364;6.452;2022-09-09T03:16:51;100526.84;;;14.16;100.00
54262;BME280;40174;52.364;6.452;2022-09-09T03:19:18;100519.88;;;14.15;100.00
54262;BME280;40174;52.364;6.452;2022-09-09T03:21:45;100515.84;;;14.11;100.00
54262;BME280;40174;52.364;6.452;2022-09-09T03:24:12;100512.53;;;14.09;100.00
54262;BME280;40174;52.364;6.452;2022-09-09T03:26:39;100516.31;;;14.06;100.00
54262;BME280;40174;52.364;6.452;2022-09-09T03:29:10;100522.59;;;14.05;100.00
54262;BME280;40174;52.364;6.452;2022-09-09T03:31:38;100514.94;;;14.02;100.00
54262;BME280;40174;52.364;6.452;2022-09-09T03:34:06;100517.94;;;13.99;100.00
54262;BME280;40174;52.364;6.452;2022-09-09T03:36:34;100519.22;;;13.95;100.00
54262;BME280;40174;52.364;6.452;2022-09-09T03:39:01;100519.81;;;13.89;100.00
54262;BME280;40174;52.364;6.452;2022-09-09T03:41:30;100515.78;;;13.85;100.00
54262;BME280;40174;52.364;6.452;2022-09-09T03:43:59;100512.63;;;13.81;100.00
54262;BME280;40174;52.364;6.452;2022-09-09T03:46:29;100510.25;;;13.78;100.00
54262;BME280;40174;52.364;6.452;2022-09-09T03:48:56;100499.94;;;13.75;100.00
54262;BME280;40174;52.364;6.452;2022-09-09T03:51:24;100500.91;;;13.74;100.00
54262;BME280;40174;52.364;6.452;2022-09-09T03:53:51;100507.22;;;13.73;100.00
54262;BME280;40174;52.364;6.452;2022-09-09T03:56:19;100511.69;;;13.72;100.00
54262;BME280;40174;52.364;6.452;2022-09-09T03:58:47;100506.22;;;13.74;100.00
54262;BME280;40174;52.364;6.452;2022-09-09T04:01:14;100510.19;;;13.70;100.00
54262;BME280;40174;52.364;6.452;2022-09-09T04:03:43;100511.16;;;13.69;100.00
54262;BME280;40174;52.364;6.452;2022-09-09T04:06:11;100515.09;;;13.65;100.00
54262;BME280;40174;52.364;6.452;2022-09-09T04:08:43;100518.56;;;13.65;100.00
54262;BME280;40174;52.364;6.452;2022-09-09T04:11:11;100524.88;;;13.64;100.00
54262;BME280;40174;52.364;6.452;2022-09-09T04:13:38;100518.50;;;13.57;100.00
54262;BME280;40174;52.364;6.452;2022-09-09T04:16:08;100510.56;;;13.57;100.00
54262;BME280;40174;52.364;6.452;2022-09-09T04:18:36;100516.13;;;13.54;100.00
54262;BME280;40174;52.364;6.452;2022-09-09T04:21:04;100516.31;;;13.52;100.00
54262;BME280;40174;52.364;6.452;2022-09-09T04:23:32;100516.44;;;13.51;100.00
54262;BME280;40174;52.364;6.452;2022-09-09T04:26:02;100514.78;;;13.50;100.00
54262;BME280;40174;52.364;6.452;2022-09-09T04:28:33;100517.72;;;13.47;100.00
54262;BME280;40174;52.364;6.452;2022-09-09T04:31:04;100506.41;;;13.45;100.00
54262;BME280;40174;52.364;6.452;2022-09-09T04:33:32;100513.03;;;13.41;100.00
54262;BME280;40174;52.364;6.452;2022-09-09T04:35:58;100516.66;;;13.40;100.00
54262;BME280;40174;52.364;6.452;2022-09-09T04:38:25;100507.03;;;13.39;100.00
54262;BME280;40174;52.364;6.452;2022-09-09T04:40:54;100510.66;;;13.38;100.00
54262;BME280;40174;52.364;6.452;2022-09-09T04:43:22;100509.16;;;13.35;100.00
54262;BME280;40174;52.364;6.452;2022-09-09T04:45:51;100509.00;;;13.37;100.00
54262;BME280;40174;52.364;6.452;2022-09-09T04:48:21;100503.00;;;13.35;100.00
54262;BME280;40174;52.364;6.452;2022-09-09T04:50:56;100504.66;;;13.36;100.00
54262;BME280;40174;52.364;6.452;2022-09-09T04:53:23;100500.19;;;13.36;100.00
54262;BME280;40174;52.364;6.452;2022-09-09T04:55:51;100500.34;;;13.35;100.00
54262;BME280;40174;52.364;6.452;2022-09-09T04:58:17;100500.50;;;13.33;100.00
54262;BME280;40174;52.364;6.452;2022-09-09T05:00:49;100496.88;;;13.34;100.00
54262;BME280;40174;52.364;6.452;2022-09-09T05:03:16;100498.66;;;13.34;100.00
54262;BME280;40174;52.364;6.452;2022-09-09T05:05:43;100496.00;;;13.34;100.00
54262;BME280;40174;52.364;6.452;2022-09-09T05:08:10;100503.97;;;13.34;100.00
54262;BME280;40174;52.364;6.452;2022-09-09T05:10:38;100505.66;;;13.35;100.00
54262;BME280;40174;52.364;6.452;2022-09-09T05:13:08;100504.53;;;13.37;100.00
54262;BME280;40174;52.364;6.452;2022-09-09T05:15:35;100508.69;;;13.40;100.00
54262;BME280;40174;52.364;6.452;2022-09-09T05:18:03;100503.53;;;13.38;100.00
54262;BME280;40174;52.364;6.452;2022-09-09T05:20:31;100498.09;;;13.40;100.00
54262;BME280;40174;52.364;6.452;2022-09-09T05:22:58;100502.25;;;13.42;100.00
54262;BME280;40174;52.364;6.452;2022-09-09T05:25:27;100497.63;;;13.44;100.00
54262;BME280;40174;52.364;6.452;2022-09-09T05:27:55;100501.81;;;13.47;100.00
54262;BME280;40174;52.364;6.452;2022-09-09T05:30:21;100489.06;;;13.50;100.00
54262;BME280;40174;52.364;6.452;2022-09-09T05:32:50;100493.38;;;13.51;100.00
54262;BME280;40174;52.364;6.452;2022-09-09T05:35:18;100486.09;;;13.54;100.00
54262;BME280;40174;52.364;6.452;2022-09-09T05:37:46;100491.97;;;13.57;100.00
54262;BME280;40174;52.364;6.452;2022-09-09T05:40:13;100494.47;;;13.59;100.00
54262;BME280;40174;52.364;6.452;2022-09-09T05:42:39;100492.47;;;13.61;100.00
54262;BME280;40174;52.364;6.452;2022-09-09T05:45:07;100484.22;;;13.64;100.00
54262;BME280;40174;52.364;6.452;2022-09-09T05:47:34;100486.56;;;13.67;100.00
54262;BME280;40174;52.364;6.452;2022-09-09T05:50:03;100495.09;;;13.70;100.00
54262;BME280;40174;52.364;6.452;2022-09-09T05:52:32;100498.41;;;13.72;100.00
54262;BME280;40174;52.364;6.452;2022-09-09T05:54:58;100496.28;;;13.76;100.00
54262;BME280;40174;52.364;6.452;2022-09-09T05:57:25;100497.78;;;13.79;100.00
54262;BME280;40174;52.364;6.452;2022-09-09T05:59:52;100497.66;;;13.80;100.00
54262;BME280;40174;52.364;6.452;2022-09-09T06:02:19;100500.84;;;13.84;100.00
54262;BME280;40174;52.364;6.452;2022-09-09T06:04:45;100506.66;;;13.87;100.00
54262;BME280;40174;52.364;6.452;2022-09-09T06:07:12;100500.91;;;13.92;100.00
54262;BME280;40174;52.364;6.452;2022-09-09T06:09:41;100511.59;;;14.00;100.00
54262;BME280;40174;52.364;6.452;2022-09-09T06:12:08;100501.81;;;14.01;100.00
54262;BME280;40174;52.364;6.452;2022-09-09T06:14:35;100508.63;;;14.03;100.00
54262;BME280;40174;52.364;6.452;2022-09-09T06:17:03;100507.34;;;14.07;100.00
54262;BME280;40174;52.364;6.452;2022-09-09T06:19:30;100509.84;;;14.09;100.00
54262;BME280;40174;52.364;6.452;2022-09-09T06:21:58;100505.22;;;14.11;100.00
54262;BME280;40174;52.364;6.452;2022-09-09T06:24:26;100508.25;;;14.16;100.00
54262;BME280;40174;52.364;6.452;2022-09-09T06:26:54;100508.94;;;14.18;100.00
54262;BME280;40174;52.364;6.452;2022-09-09T06:29:26;100514.59;;;14.23;100.00
54262;BME280;40174;52.364;6.452;2022-09-09T06:31:52;100514.47;;;14.25;100.00
54262;BME280;40174;52.364;6.452;2022-09-09T06:34:21;100504.66;;;14.25;100.00
54262;BME280;40174;52.364;6.452;2022-09-09T06:36:58;100509.22;;;14.33;100.00
54262;BME280;40174;52.364;6.452;2022-09-09T06:39:30;100505.22;;;14.37;100.00
54262;BME280;40174;52.364;6.452;2022-09-09T06:41:58;100501.28;;;14.41;100.00
54262;BME280;40174;52.364;6.452;2022-09-09T06:44:43;100504.47;;;14.45;100.00
54262;BME280;40174;52.364;6.452;2022-09-09T06:47:17;100499.69;;;14.48;100.00
54262;BME280;40174;52.364;6.452;2022-09-09T06:49:45;100505.38;;;14.53;100.00
54262;BME280;40174;52.364;6.452;2022-09-09T06:52:11;100504.91;;;14.58;100.00
54262;BME280;40174;52.364;6.452;2022-09-09T06:54:38;100502.75;;;14.62;100.00
54262;BME280;40174;52.364;6.452;2022-09-09T06:57:06;100502.63;;;14.63;100.00
54262;BME280;40174;52.364;6.452;2022-09-09T06:59:34;100502.13;;;14.68;100.00
54262;BME280;40174;52.364;6.452;2022-09-09T07:02:01;100504.31;;;14.72;100.00
54262;BME280;40174;52.364;6.452;2022-09-09T07:04:28;100498.38;;;14.79;100.00
54262;BME280;40174;52.364;6.452;2022-09-09T07:06:55;100507.03;;;14.81;100.00
54262;BME280;40174;52.364;6.452;2022-09-09T07:09:24;100497.91;;;14.83;100.00
54262;BME280;40174;52.364;6.452;2022-09-09T07:11:52;100501.25;;;14.85;100.00
54262;BME280;40174;52.364;6.452;2022-09-09T07:14:22;100504.09;;;14.92;100.00
54262;BME280;40174;52.364;6.452;2022-09-09T07:16:56;100508.28;;;14.94;100.00
54262;BME280;40174;52.364;6.452;2022-09-09T07:19:23;100501.63;;;14.99;100.00
54262;BME280;40174;52.364;6.452;2022-09-09T07:21:52;100506.63;;;15.02;100.00
54262;BME280;40174;52.364;6.452;2022-09-09T07:24:21;100501.00;;;15.05;100.00
54262;BME280;40174;52.364;6.452;2022-09-09T07:26:48;100498.84;;;15.08;100.00
54262;BME280;40174;52.364;6.452;2022-09-09T07:29:15;100497.53;;;15.12;100.00
54262;BME280;40174;52.364;6.452;2022-09-09T07:31:45;100505.03;;;15.17;100.00
54262;BME280;40174;52.364;6.452;2022-09-09T07:34:17;100510.41;;;15.25;100.00
54262;BME280;40174;52.364;6.452;2022-09-09T07:36:43;100500.75;;;15.32;100.00
54262;BME280;40174;52.364;6.452;2022-09-09T07:39:13;100510.59;;;15.40;100.00
54262;BME280;40174;52.364;6.452;2022-09-09T07:41:46;100516.78;;;15.49;100.00
54262;BME280;40174;52.364;6.452;2022-09-09T07:44:18;100513.13;;;15.58;100.00
54262;BME280;40174;52.364;6.452;2022-09-09T07:46:50;100519.13;;;15.60;100.00
54262;BME280;40174;52.364;6.452;2022-09-09T07:49:22;100509.50;;;15.67;100.00
54262;BME280;40174;52.364;6.452;2022-09-09T07:51:49;100511.03;;;15.78;100.00
54262;BME280;40174;52.364;6.452;2022-09-09T07:54:18;100503.22;;;15.85;100.00
54262;BME280;40174;52.364;6.452;2022-09-09T07:56:49;100514.22;;;15.98;100.00
54262;BME280;40174;52.364;6.452;2022-09-09T07:59:16;100509.88;;;16.05;100.00
54262;BME280;40174;52.364;6.452;2022-09-09T08:01:48;100517.38;;;16.10;100.00
54262;BME280;40174;52.364;6.452;2022-09-09T08:04:21;100514.22;;;16.14;100.00
54262;BME280;40174;52.364;6.452;2022-09-09T08:06:51;100521.53;;;16.20;100.00
54262;BME280;40174;52.364;6.452;2022-09-09T08:09:20;100521.91;;;16.26;100.00
54262;BME280;40174;52.364;6.452;2022-09-09T08:11:48;100526.06;;;16.28;100.00
54262;BME280;40174;52.364;6.452;2022-09-09T08:14:16;100515.03;;;16.31;100.00
54262;BME280;40174;52.364;6.452;2022-09-09T08:16:45;100525.19;;;16.28;100.00
54262;BME280;40174;52.364;6.452;2022-09-09T08:19:15;100530.53;;;16.28;100.00
54262;BME280;40174;52.364;6.452;2022-09-09T08:21:45;100523.72;;;16.25;100.00
54262;BME280;40174;52.364;6.452;2022-09-09T08:24:12;100522.22;;;16.31;100.00
54262;BME280;40174;52.364;6.452;2022-09-09T08:26:43;100520.22;;;16.33;100.00
54262;BME280;40174;52.364;6.452;2022-09-09T08:29:12;100538.38;;;16.37;100.00
54262;BME280;40174;52.364;6.452;2022-09-09T08:31:41;100525.19;;;16.36;100.00
54262;BME280;40174;52.364;6.452;2022-09-09T08:34:08;100532.88;;;16.39;100.00
54262;BME280;40174;52.364;6.452;2022-09-09T08:36:38;100534.53;;;16.40;100.00
54262;BME280;40174;52.364;6.452;2022-09-09T08:39:08;100538.03;;;16.40;100.00
54262;BME280;40174;52.364;6.452;2022-09-09T08:41:41;100539.53;;;16.43;100.00
54262;BME280;40174;52.364;6.452;2022-09-09T08:44:17;100540.03;;;16.47;100.00
54262;BME280;40174;52.364;6.452;2022-09-09T08:46:51;100549.69;;;16.48;100.00
54262;BME280;40174;52.364;6.452;2022-09-09T08:49:39;100544.03;;;16.51;100.00
54262;BME280;40174;52.364;6.452;2022-09-09T08:52:14;100534.19;;;16.51;100.00
54262;BME280;40174;52.364;6.452;2022-09-09T08:54:44;100542.34;;;16.50;100.00
54262;BME280;40174;52.364;6.452;2022-09-09T08:57:16;100551.84;;;16.52;100.00
54262;BME280;40174;52.364;6.452;2022-09-09T08:59:44;100543.50;;;16.63;100.00
54262;BME280;40174;52.364;6.452;2022-09-09T09:02:15;100547.84;;;16.81;100.00
54262;BME280;40174;52.364;6.452;2022-09-09T09:04:58;100539.97;;;16.96;100.00
54262;BME280;40174;52.364;6.452;2022-09-09T09:07:34;100549.09;;;17.01;100.00
54262;BME280;40174;52.364;6.452;2022-09-09T09:10:14;100546.94;;;17.05;100.00
54262;BME280;40174;52.364;6.452;2022-09-09T09:12:43;100544.75;;;17.09;100.00
54262;BME280;40174;52.364;6.452;2022-09-09T09:15:17;100541.75;;;17.12;100.00
54262;BME280;40174;52.364;6.452;2022-09-09T09:17:45;100551.06;;;17.16;100.00
54262;BME280;40174;52.364;6.452;2022-09-09T09:20:12;100552.06;;;17.15;100.00
54262;BME280;40174;52.364;6.452;2022-09-09T09:22:47;100559.38;;;17.21;100.00
54262;BME280;40174;52.364;6.452;2022-09-09T09:25:20;100550.69;;;17.27;100.00
54262;BME280;40174;52.364;6.452;2022-09-09T09:27:54;100548.31;;;17.32;100.00
54262;BME280;40174;52.364;6.452;2022-09-09T09:30:31;100547.81;;;17.37;100.00
54262;BME280;40174;52.364;6.452;2022-09-09T09:33:08;100536.56;;;17.50;100.00
54262;BME280;40174;52.364;6.452;2022-09-09T09:35:40;100551.41;;;17.52;100.00
54262;BME280;40174;52.364;6.452;2022-09-09T09:38:16;100544.84;;;17.63;100.00
54262;BME280;40174;52.364;6.452;2022-09-09T09:40:53;100550.44;;;17.76;100.00
54262;BME280;40174;52.364;6.452;2022-09-09T09:43:25;100548.16;;;17.96;100.00
54262;BME280;40174;52.364;6.452;2022-09-09T09:45:53;100544.22;;;18.07;100.00
54262;BME280;40174;52.364;6.452;2022-09-09T09:48:20;100552.25;;;18.07;100.00
54262;BME280;40174;52.364;6.452;2022-09-09T09:50:50;100555.66;;;18.01;100.00
54262;BME280;40174;52.364;6.452;2022-09-09T09:53:21;100550.50;;;17.91;100.00
54262;BME280;40174;52.364;6.452;2022-09-09T09:55:55;100549.03;;;17.89;100.00
54262;BME280;40174;52.364;6.452;2022-09-09T09:58:23;100555.94;;;17.83;100.00
54262;BME280;40174;52.364;6.452;2022-09-09T10:00:52;100554.25;;;17.82;100.00
54262;BME280;40174;52.364;6.452;2022-09-09T10:03:26;100558.44;;;17.76;100.00
54262;BME280;40174;52.364;6.452;2022-09-09T10:05:53;100556.25;;;17.80;100.00
54262;BME280;40174;52.364;6.452;2022-09-09T10:08:22;100562.41;;;17.89;100.00
54262;BME280;40174;52.364;6.452;2022-09-09T10:11:00;100566.63;;;17.83;100.00
54262;BME280;40174;52.364;6.452;2022-09-09T10:13:38;100566.94;;;17.80;100.00
54262;BME280;40174;52.364;6.452;2022-09-09T10:16:24;100563.59;;;17.78;100.00
54262;BME280;40174;52.364;6.452;2022-09-09T10:18:59;100568.31;;;17.76;100.00
54262;BME280;40174;52.364;6.452;2022-09-09T10:21:46;100562.13;;;17.75;100.00
54262;BME280;40174;52.364;6.452;2022-09-09T10:24:30;100557.63;;;17.76;100.00
54262;BME280;40174;52.364;6.452;2022-09-09T10:27:12;100556.09;;;17.81;100.00
54262;BME280;40174;52.364;6.452;2022-09-09T10:30:01;100558.06;;;17.88;100.00
54262;BME280;40174;52.364;6.452;2022-09-09T10:32:38;100557.72;;;17.91;100.00
54262;BME280;40174;52.364;6.452;2022-09-09T10:35:12;100554.34;;;17.97;100.00
54262;BME280;40174;52.364;6.452;2022-09-09T10:37:47;100558.31;;;18.01;100.00
54262;BME280;40174;52.364;6.452;2022-09-09T10:40:26;100549.94;;;18.04;100.00
54262;BME280;40174;52.364;6.452;2022-09-09T10:43:03;100557.13;;;18.03;100.00
54262;BME280;40174;52.364;6.452;2022-09-09T10:45:43;100551.94;;;18.02;100.00
54262;BME280;40174;52.364;6.452;2022-09-09T10:48:23;100546.16;;;17.98;99.13
54262;BME280;40174;52.364;6.452;2022-09-09T10:50:56;100547.09;;;18.05;99.20
54262;BME280;40174;52.364;6.452;2022-09-09T10:53:35;100536.25;;;18.22;99.41
54262;BME280;40174;52.364;6.452;2022-09-09T10:56:06;100535.66;;;18.35;98.82
54262;BME280;40174;52.364;6.452;2022-09-09T10:58:40;100535.59;;;18.58;98.93
54262;BME280;40174;52.364;6.452;2022-09-09T11:01:15;100536.34;;;18.66;96.24
54262;BME280;40174;52.364;6.452;2022-09-09T11:03:43;100542.56;;;18.82;95.83
54262;BME280;40174;52.364;6.452;2022-09-09T11:06:16;100543.31;;;18.90;93.19
54262;BME280;40174;52.364;6.452;2022-09-09T11:08:45;100535.63;;;18.87;91.67
54262;BME280;40174;52.364;6.452;2022-09-09T11:11:17;100532.78;;;18.89;93.66
54262;BME280;40174;52.364;6.452;2022-09-09T11:13:51;100540.63;;;18.90;92.21
54262;BME280;40174;52.364;6.452;2022-09-09T11:16:25;100529.19;;;18.82;93.31
54262;BME280;40174;52.364;6.452;2022-09-09T11:18:57;100532.56;;;18.76;92.90
54262;BME280;40174;52.364;6.452;2022-09-09T11:21:28;100538.63;;;18.69;92.20
54262;BME280;40174;52.364;6.452;2022-09-09T11:23:59;100537.81;;;18.69;92.10
54262;BME280;40174;52.364;6.452;2022-09-09T11:26:31;100546.63;;;18.78;91.71
54262;BME280;40174;52.364;6.452;2022-09-09T11:29:17;100534.44;;;18.90;91.45
54262;BME280;40174;52.364;6.452;2022-09-09T11:32:00;100540.44;;;18.92;90.03
54262;BME280;40174;52.364;6.452;2022-09-09T11:34:39;100537.66;;;18.85;90.12
54262;BME280;40174;52.364;6.452;2022-09-09T11:37:40;100549.31;;;18.78;90.12
54262;BME280;40174;52.364;6.452;2022-09-09T11:40:22;100543.00;;;18.70;94.90
54262;BME280;40174;52.364;6.452;2022-09-09T11:43:02;100547.44;;;18.78;98.27
54262;BME280;40174;52.364;6.452;2022-09-09T11:45:33;100548.19;;;18.87;99.76
54262;BME280;40174;52.364;6.452;2022-09-09T11:48:02;100543.50;;;18.89;99.86
54262;BME280;40174;52.364;6.452;2022-09-09T11:50:35;100547.09;;;18.96;100.00
54262;BME280;40174;52.364;6.452;2022-09-09T11:53:17;100542.75;;;18.95;99.06
54262;BME280;40174;52.364;6.452;2022-09-09T11:55:46;100555.13;;;18.96;97.70
54262;BME280;40174;52.364;6.452;2022-09-09T11:58:17;100548.19;;;18.87;93.78
54262;BME280;40174;52.364;6.452;2022-09-09T12:00:48;100545.06;;;18.83;94.42
54262;BME280;40174;52.364;6.452;2022-09-09T12:03:34;100544.88;;;18.85;95.30
54262;BME280;40174;52.364;6.452;2022-09-09T12:06:10;100527.41;;;18.89;94.61
54262;BME280;40174;52.364;6.452;2022-09-09T12:08:41;100536.09;;;18.91;93.30
54262;BME280;40174;52.364;6.452;2022-09-09T12:11:11;100540.16;;;18.87;92.30
54262;BME280;40174;52.364;6.452;2022-09-09T12:13:37;100538.59;;;18.93;93.01
54262;BME280;40174;52.364;6.452;2022-09-09T12:16:05;100535.72;;;19.09;91.36
54262;BME280;40174;52.364;6.452;2022-09-09T12:19:03;100537.78;;;19.43;90.13
54262;BME280;40174;52.364;6.452;2022-09-09T12:21:34;100541.19;;;19.52;90.72
54262;BME280;40174;52.364;6.452;2022-09-09T12:24:07;100530.97;;;19.41;87.12
54262;BME280;40174;52.364;6.452;2022-09-09T12:26:37;100540.22;;;19.38;87.34
54262;BME280;40174;52.364;6.452;2022-09-09T12:29:16;100532.66;;;19.27;88.19
54262;BME280;40174;52.364;6.452;2022-09-09T12:31:53;100536.56;;;19.09;87.29
54262;BME280;40174;52.364;6.452;2022-09-09T12:34:35;100521.13;;;18.97;88.84
54262;BME280;40174;52.364;6.452;2022-09-09T12:37:08;100544.97;;;18.92;90.44
54262;BME280;40174;52.364;6.452;2022-09-09T12:39:43;100551.59;;;18.81;91.17
54262;BME280;40174;52.364;6.452;2022-09-09T12:42:17;100554.34;;;18.73;96.83
54262;BME280;40174;52.364;6.452;2022-09-09T12:44:51;100554.16;;;18.59;100.00
54262;BME280;40174;52.364;6.452;2022-09-09T12:47:19;100550.78;;;18.42;100.00
54262;BME280;40174;52.364;6.452;2022-09-09T12:49:48;100541.81;;;18.35;100.00
54262;BME280;40174;52.364;6.452;2022-09-09T12:52:20;100549.72;;;18.28;100.00
54262;BME280;40174;52.364;6.452;2022-09-09T12:54:49;100561.34;;;18.21;100.00
54262;BME280;40174;52.364;6.452;2022-09-09T12:57:19;100546.56;;;18.25;100.00
54262;BME280;40174;52.364;6.452;2022-09-09T12:59:46;100548.13;;;18.57;100.00
54262;BME280;40174;52.364;6.452;2022-09-09T13:02:19;100553.88;;;18.69;100.00
54262;BME280;40174;52.364;6.452;2022-09-09T13:04:47;100554.03;;;18.67;100.00